createdAt,value
2022-08-12T00:00:51.448Z,49.10
2022-08-12T00:03:37.116Z,49.10
2022-08-12T00:06:23.353Z,49.10
2022-08-12T00:09:09.220Z,49.00
2022-08-12T00:11:55.437Z,49.20
2022-08-12T00:14:42.119Z,49.30
2022-08-12T00:17:27.429Z,49.40
2022-08-12T00:20:13.172Z,49.50
2022-08-12T00:22:58.993Z,49.50
2022-08-12T00:26:21.185Z,49.60
2022-08-12T00:29:01.950Z,49.70
2022-08-12T00:31:47.210Z,49.70
2022-08-12T00:34:34.619Z,49.70
2022-08-12T00:37:19.915Z,49.70
2022-08-12T00:40:10.939Z,49.70
2022-08-12T00:42:40.139Z,49.70
2022-08-12T00:45:07.563Z,49.80
2022-08-12T00:47:35.298Z,49.80
2022-08-12T00:50:02.272Z,49.80
2022-08-12T00:52:29.090Z,49.70
2022-08-12T00:55:00.873Z,49.80
2022-08-12T00:57:37.660Z,49.80
2022-08-12T01:00:21.438Z,49.80
2022-08-12T01:02:52.298Z,49.80
2022-08-12T01:05:41.261Z,49.70
2022-08-12T01:08:27.580Z,49.80
2022-08-12T01:11:15.490Z,49.80
2022-08-12T01:13:47.239Z,49.80
2022-08-12T01:16:22.372Z,49.80
2022-08-12T01:18:51.199Z,49.80
2022-08-12T01:21:57.005Z,49.90
2022-08-12T01:24:48.357Z,50.00
2022-08-12T01:27:18.291Z,50.00
2022-08-12T01:29:48.431Z,50.00
2022-08-12T01:32:16.150Z,50.10
2022-08-12T01:35:03.209Z,50.20
2022-08-12T01:37:33.470Z,50.20
2022-08-12T01:40:33.540Z,50.30
2022-08-12T01:42:51.955Z,50.30
2022-08-12T01:45:24.932Z,50.40
2022-08-12T01:48:12.954Z,50.40
2022-08-12T01:52:16.421Z,50.50
2022-08-12T01:54:15.678Z,50.60
2022-08-12T01:56:52.674Z,50.60
2022-08-12T01:59:49.920Z,50.70
2022-08-12T02:02:27.310Z,50.80
2022-08-12T02:05:36.861Z,50.90
2022-08-12T02:08:28.701Z,51.00
2022-08-12T02:11:19.335Z,50.80
2022-08-12T02:14:11.601Z,51.10
2022-08-12T02:17:00.330Z,51.20
2022-08-12T02:19:53.365Z,51.30
2022-08-12T02:22:27.473Z,51.40
2022-08-12T02:25:07.389Z,51.40
2022-08-12T02:27:39.500Z,51.50
2022-08-12T02:30:09.499Z,51.60
2022-08-12T02:32:42.417Z,52.30
2022-08-12T02:35:22.677Z,51.80
2022-08-12T02:37:52.424Z,51.90
2022-08-12T02:40:20.574Z,51.90
2022-08-12T02:43:00.992Z,51.90
2022-08-12T02:45:39.358Z,52.00
2022-08-12T02:48:10.459Z,52.00
2022-08-12T02:50:44.643Z,52.10
2022-08-12T02:53:12.395Z,52.20
2022-08-12T02:55:39.316Z,52.30
2022-08-12T02:58:12.722Z,52.30
2022-08-12T03:00:43.843Z,52.40
2022-08-12T03:03:13.296Z,52.40
2022-08-12T03:05:52.428Z,52.50
2022-08-12T03:08:31.566Z,52.60
2022-08-12T03:11:28.878Z,52.60
2022-08-12T03:14:01.499Z,52.70
2022-08-12T03:16:33.067Z,52.70
2022-08-12T03:19:00.491Z,52.80
2022-08-12T03:21:53.047Z,52.80
2022-08-12T03:24:18.458Z,52.80
2022-08-12T03:26:47.279Z,52.90
2022-08-12T03:29:16.580Z,52.90
2022-08-12T03:31:44.095Z,53.00
2022-08-12T03:34:14.679Z,53.10
2022-08-12T03:36:42.648Z,53.20
2022-08-12T03:39:17.592Z,53.20
2022-08-12T03:41:57.967Z,53.30
2022-08-12T03:44:52.797Z,53.30
2022-08-12T03:47:50.223Z,53.30
2022-08-12T03:50:36.197Z,53.30
2022-08-12T03:53:28.189Z,53.30
2022-08-12T03:56:14.958Z,53.40
2022-08-12T03:59:00.437Z,53.40
2022-08-12T04:01:27.639Z,53.50
2022-08-12T04:03:55.164Z,53.50
2022-08-12T04:06:35.124Z,53.60
2022-08-12T04:09:14.887Z,53.60
2022-08-12T04:12:03.695Z,53.70
2022-08-12T04:14:31.645Z,53.70
2022-08-12T04:16:58.854Z,53.80
2022-08-12T04:19:26.620Z,53.80
2022-08-12T04:22:01.966Z,54.00
2022-08-12T04:24:31.949Z,54.00
2022-08-12T04:26:59.181Z,54.10
2022-08-12T04:30:21.368Z,54.10
2022-08-12T04:32:14.081Z,54.20
2022-08-12T04:34:44.010Z,54.20
2022-08-12T04:37:12.515Z,54.90
2022-08-12T04:39:40.545Z,54.40
2022-08-12T04:42:07.646Z,54.40
2022-08-12T04:44:34.462Z,54.40
2022-08-12T04:47:01.303Z,54.40
2022-08-12T04:49:30.153Z,54.50
2022-08-12T04:51:58.854Z,54.60
2022-08-12T04:54:27.708Z,54.60
2022-08-12T04:57:04.503Z,54.70
2022-08-12T04:59:47.875Z,54.70
2022-08-12T05:02:20.935Z,54.70
2022-08-12T05:04:51.126Z,54.70
2022-08-12T05:07:17.860Z,54.70
2022-08-12T05:09:58.709Z,54.70
2022-08-12T05:12:41.353Z,54.70
2022-08-12T05:15:27.717Z,54.70
2022-08-12T05:17:55.964Z,54.80
2022-08-12T05:20:25.903Z,54.70
2022-08-12T05:23:15.605Z,54.80
2022-08-12T05:25:43.283Z,54.90
2022-08-12T05:28:11.292Z,54.80
2022-08-12T05:30:38.069Z,54.80
2022-08-12T05:33:06.266Z,54.90
2022-08-12T05:35:39.841Z,54.90
2022-08-12T05:38:39.423Z,54.80
2022-08-12T05:41:19.103Z,54.80
2022-08-12T05:43:54.430Z,54.70
2022-08-12T05:46:22.685Z,54.80
2022-08-12T05:48:51.218Z,54.80
2022-08-12T05:51:18.891Z,54.70
2022-08-12T05:53:45.763Z,54.80
2022-08-12T05:56:21.032Z,54.70
2022-08-12T05:58:49.498Z,54.80
2022-08-12T06:02:09.598Z,54.80
2022-08-12T06:04:03.669Z,54.70
2022-08-12T06:06:39.699Z,54.70
2022-08-12T06:09:11.219Z,54.90
2022-08-12T06:11:41.399Z,54.80
2022-08-12T06:14:28.180Z,54.80
2022-08-12T06:16:57.672Z,54.70
2022-08-12T06:19:25.534Z,54.60
2022-08-12T06:22:12.551Z,54.60
2022-08-12T06:24:39.393Z,54.60
2022-08-12T06:27:06.162Z,54.50
2022-08-12T06:30:07.041Z,54.40
2022-08-12T06:32:21.510Z,54.30
2022-08-12T06:35:26.103Z,54.20
2022-08-12T06:37:50.432Z,54.30
2022-08-12T06:40:42.042Z,54.30
2022-08-12T06:43:08.902Z,54.10
2022-08-12T06:45:46.745Z,54.10
2022-08-12T06:48:14.042Z,54.20
2022-08-12T06:50:42.357Z,54.00
2022-08-12T06:53:09.398Z,53.90
2022-08-12T06:55:36.226Z,53.60
2022-08-12T06:58:08.249Z,53.50
2022-08-12T07:00:37.747Z,52.80
2022-08-12T07:03:22.913Z,52.90
2022-08-12T07:05:50.864Z,52.70
2022-08-12T07:08:18.517Z,52.50
2022-08-12T07:10:57.343Z,52.40
2022-08-12T07:13:25.091Z,52.10
2022-08-12T07:15:56.520Z,52.00
2022-08-12T07:18:31.049Z,51.80
2022-08-12T07:20:58.276Z,51.50
2022-08-12T07:23:25.009Z,51.40
2022-08-12T07:25:56.460Z,51.30
2022-08-12T07:28:28.115Z,51.20
2022-08-12T07:30:55.905Z,51.10
2022-08-12T07:33:27.964Z,51.10
2022-08-12T07:35:57.459Z,51.00
2022-08-12T07:38:29.451Z,50.80
2022-08-12T07:41:03.263Z,51.00
2022-08-12T07:43:31.160Z,50.90
2022-08-12T07:45:58.834Z,50.70
2022-08-12T07:48:26.198Z,50.60
2022-08-12T07:50:53.845Z,50.30
2022-08-12T07:53:21.284Z,50.30
2022-08-12T07:55:48.185Z,50.30
2022-08-12T07:58:15.208Z,50.40
2022-08-12T08:00:42.671Z,50.30
2022-08-12T08:03:09.436Z,50.30
2022-08-12T08:05:46.434Z,50.20
2022-08-12T08:08:19.754Z,50.20
2022-08-12T08:10:47.716Z,49.90
2022-08-12T08:13:15.276Z,50.00
2022-08-12T08:16:02.556Z,49.80
2022-08-12T08:18:30.303Z,49.60
2022-08-12T08:20:57.020Z,49.30
2022-08-12T08:23:46.157Z,49.40
2022-08-12T08:26:15.507Z,49.40
2022-08-12T08:28:43.698Z,49.50
2022-08-12T08:31:10.570Z,49.30
2022-08-12T08:34:01.564Z,49.20
2022-08-12T08:36:24.431Z,48.80
2022-08-12T08:38:55.983Z,48.70
2022-08-12T08:42:16.790Z,48.50
2022-08-12T08:44:31.580Z,48.20
2022-08-12T08:46:58.511Z,47.90
2022-08-12T08:49:25.688Z,47.70
2022-08-12T08:51:52.386Z,47.50
2022-08-12T08:54:19.089Z,47.40
2022-08-12T08:56:50.128Z,47.20
2022-08-12T08:59:22.814Z,47.00
2022-08-12T09:01:49.631Z,47.50
2022-08-12T09:05:12.657Z,46.70
2022-08-12T09:10:02.714Z,46.10
2022-08-12T09:12:55.023Z,45.70
2022-08-12T09:15:35.088Z,45.40
2022-08-12T09:18:05.743Z,45.30
2022-08-12T09:20:36.267Z,45.20
2022-08-12T09:25:52.378Z,44.80
2022-08-12T09:28:21.107Z,44.70
2022-08-12T09:30:59.119Z,44.40
2022-08-12T09:34:27.571Z,44.10
2022-08-12T09:36:16.197Z,43.90
2022-08-12T09:38:58.998Z,43.80
2022-08-12T09:42:33.339Z,43.60
2022-08-12T09:44:39.393Z,43.20
2022-08-12T09:47:10.748Z,43.00
2022-08-12T09:49:42.188Z,42.80
2022-08-12T09:52:11.562Z,42.80
2022-08-12T09:54:38.334Z,42.60
2022-08-12T09:58:45.371Z,42.50
2022-08-12T10:00:13.868Z,42.30
2022-08-12T10:03:07.778Z,42.20
2022-08-12T10:06:27.838Z,42.10
2022-08-12T10:08:44.374Z,42.20
2022-08-12T10:12:10.842Z,42.00
2022-08-12T10:14:19.065Z,41.80
2022-08-12T10:17:01.293Z,41.50
2022-08-12T10:19:36.685Z,41.30
2022-08-12T10:22:06.127Z,40.80
2022-08-12T10:25:17.616Z,40.40
2022-08-12T10:28:08.428Z,40.50
2022-08-12T10:30:44.218Z,40.50
2022-08-12T10:33:30.660Z,40.50
2022-08-12T10:35:59.979Z,40.50
2022-08-12T10:38:39.021Z,40.40
2022-08-12T10:41:58.830Z,40.30
2022-08-12T10:44:17.205Z,40.40
2022-08-12T10:46:49.887Z,40.40
2022-08-12T10:50:02.279Z,40.60
2022-08-12T10:52:34.807Z,40.60
2022-08-12T10:54:55.788Z,40.20
2022-08-12T10:58:14.169Z,40.00
2022-08-12T11:00:30.582Z,39.70
2022-08-12T11:04:31.296Z,39.60
2022-08-12T11:07:03.079Z,39.50
2022-08-12T11:08:43.695Z,39.50
2022-08-12T11:12:34.585Z,39.50
2022-08-12T11:14:05.606Z,39.30
2022-08-12T11:16:33.309Z,39.20
2022-08-12T11:19:02.598Z,39.00
2022-08-12T11:21:56.734Z,38.70
2022-08-12T11:24:31.838Z,38.50
2022-08-12T11:27:01.219Z,38.50
2022-08-12T11:30:01.454Z,38.40
2022-08-12T11:32:16.749Z,38.20
2022-08-12T11:34:53.811Z,37.80
2022-08-12T11:37:26.432Z,37.50
2022-08-12T11:42:35.786Z,37.10
2022-08-12T11:45:04.998Z,37.10
2022-08-12T11:47:31.929Z,36.90
2022-08-12T11:49:58.800Z,36.60
2022-08-12T11:53:58.082Z,36.30
2022-08-12T11:55:14.897Z,35.90
2022-08-12T11:58:16.276Z,35.60
2022-08-12T12:03:26.342Z,34.90
2022-08-12T12:06:10.997Z,34.70
2022-08-12T12:08:47.035Z,34.40
2022-08-12T12:11:18.515Z,33.90
2022-08-12T12:14:07.902Z,34.00
2022-08-12T12:16:33.682Z,33.90
2022-08-12T12:19:11.314Z,33.80
2022-08-12T12:21:48.548Z,33.50
2022-08-12T12:24:21.401Z,33.20
2022-08-12T12:27:00.457Z,33.00
2022-08-12T12:30:17.818Z,33.00
2022-08-12T12:32:19.358Z,33.10
2022-08-12T12:35:17.763Z,33.30
2022-08-12T12:38:12.998Z,33.30
2022-08-12T12:40:43.814Z,34.00
2022-08-12T12:43:11.944Z,33.50
2022-08-12T12:45:44.441Z,33.60
2022-08-12T12:48:14.613Z,33.40
2022-08-12T12:50:51.466Z,33.40
2022-08-12T12:54:05.251Z,33.40
2022-08-12T12:56:20.988Z,33.30
2022-08-12T12:59:03.461Z,33.60
2022-08-12T13:01:31.788Z,33.80
2022-08-12T13:04:02.691Z,34.00
2022-08-12T13:06:31.511Z,34.20
2022-08-12T13:09:02.726Z,34.30
2022-08-12T13:11:41.506Z,34.40
2022-08-12T13:14:12.823Z,34.20
2022-08-12T13:16:54.524Z,34.20
2022-08-12T13:19:25.070Z,34.30
2022-08-12T13:22:20.480Z,34.30
2022-08-12T13:24:55.764Z,34.30
2022-08-12T13:27:35.225Z,34.50
2022-08-12T13:30:06.877Z,34.60
2022-08-12T13:32:37.832Z,34.80
2022-08-12T13:35:19.871Z,34.70
2022-08-12T13:37:55.739Z,34.60
2022-08-12T13:40:35.311Z,34.70
2022-08-12T13:43:06.156Z,35.40
2022-08-12T13:45:35.004Z,34.80
2022-08-12T13:48:06.220Z,34.90
2022-08-12T13:50:38.708Z,34.80
2022-08-12T13:53:24.669Z,34.90
2022-08-12T13:55:59.390Z,35.00
2022-08-12T13:58:28.107Z,35.20
2022-08-12T14:00:58.106Z,35.30
2022-08-12T14:03:28.039Z,35.30
2022-08-12T14:05:59.138Z,35.40
2022-08-12T14:08:34.449Z,35.60
2022-08-12T14:11:02.294Z,35.60
2022-08-12T14:14:05.472Z,35.80
2022-08-12T14:16:37.666Z,35.80
2022-08-12T14:19:10.376Z,35.80
2022-08-12T14:21:59.688Z,35.70
2022-08-12T14:24:35.765Z,35.90
2022-08-12T14:27:08.725Z,36.00
2022-08-12T14:30:04.333Z,36.00
2022-08-12T14:32:28.193Z,36.10
2022-08-12T14:34:56.699Z,36.00
2022-08-12T14:37:56.045Z,36.00
2022-08-12T14:40:11.781Z,36.00
2022-08-12T14:42:46.972Z,36.00
2022-08-12T14:45:14.045Z,36.10
2022-08-12T14:47:53.717Z,36.10
2022-08-12T14:50:37.839Z,36.10
2022-08-12T14:55:24.713Z,35.90
2022-08-12T14:59:23.178Z,36.10
2022-08-12T15:01:52.142Z,36.00
2022-08-12T15:04:28.561Z,35.80
2022-08-12T15:06:56.237Z,35.80
2022-08-12T15:09:29.256Z,35.70
2022-08-12T15:12:03.558Z,35.60
2022-08-12T15:14:31.850Z,35.70
2022-08-12T15:17:00.079Z,35.70
2022-08-12T15:20:11.680Z,35.70
2022-08-12T15:22:35.800Z,35.60
2022-08-12T15:25:07.192Z,35.60
2022-08-12T15:28:05.110Z,35.60
2022-08-12T15:30:30.406Z,35.70
2022-08-12T15:32:57.468Z,35.70
2022-08-12T15:35:31.064Z,35.60
2022-08-12T15:38:10.192Z,35.40
2022-08-12T15:40:46.599Z,36.00
2022-08-12T15:43:35.570Z,35.30
2022-08-12T15:46:04.696Z,35.30
2022-08-12T15:48:32.633Z,35.20
2022-08-12T15:51:00.547Z,35.40
2022-08-12T15:53:46.609Z,35.50
2022-08-12T15:56:29.249Z,35.50
2022-08-12T15:58:59.123Z,35.50
2022-08-12T16:01:35.047Z,35.50
2022-08-12T16:04:05.549Z,35.50
2022-08-12T16:09:56.688Z,35.50
2022-08-12T16:12:12.006Z,35.60
2022-08-12T16:14:39.127Z,35.70
2022-08-12T16:17:08.941Z,35.90
2022-08-12T16:20:03.245Z,36.10
2022-08-12T16:22:24.425Z,36.50
2022-08-12T16:24:54.035Z,36.60
2022-08-12T16:27:23.710Z,36.80
2022-08-12T16:29:57.357Z,36.90
2022-08-12T16:32:31.088Z,37.00
2022-08-12T16:34:59.058Z,37.00
2022-08-12T16:37:32.653Z,37.10
2022-08-12T16:40:14.673Z,37.20
2022-08-12T16:43:01.542Z,37.10
2022-08-12T16:46:04.512Z,37.10
2022-08-12T16:48:34.636Z,37.30
2022-08-12T16:51:09.755Z,37.30
2022-08-12T16:53:44.419Z,37.30
2022-08-12T16:56:16.890Z,37.40
2022-08-12T16:58:44.660Z,37.40
2022-08-12T17:01:15.448Z,37.40
2022-08-12T17:03:52.374Z,37.40
2022-08-12T17:06:22.538Z,37.60
2022-08-12T17:09:02.329Z,37.80
2022-08-12T17:11:31.178Z,37.90
2022-08-12T17:13:59.500Z,37.90
2022-08-12T17:16:29.992Z,37.90
2022-08-12T17:18:59.615Z,37.70
2022-08-12T17:21:41.566Z,37.70
2022-08-12T17:24:21.273Z,37.70
2022-08-12T17:26:49.383Z,37.70
2022-08-12T17:29:19.445Z,37.80
2022-08-12T17:32:02.796Z,37.80
2022-08-12T17:34:49.243Z,37.80
2022-08-12T17:37:16.521Z,37.80
2022-08-12T17:40:12.771Z,37.90
2022-08-12T17:42:35.229Z,37.80
2022-08-12T17:45:18.288Z,37.90
2022-08-12T17:48:01.668Z,37.90
2022-08-12T17:50:36.923Z,37.90
2022-08-12T17:53:08.128Z,38.10
2022-08-12T17:55:47.288Z,38.20
2022-08-12T17:58:36.951Z,38.30
2022-08-12T18:01:06.087Z,38.30
2022-08-12T18:03:58.071Z,38.50
2022-08-12T18:06:28.241Z,38.70
2022-08-12T18:08:58.688Z,38.90
2022-08-12T18:12:04.068Z,39.00
2022-08-12T18:14:32.478Z,39.10
2022-08-12T18:17:01.636Z,39.30
2022-08-12T18:20:04.342Z,39.20
2022-08-12T18:22:22.061Z,39.20
2022-08-12T18:25:04.994Z,39.30
2022-08-12T18:27:44.196Z,39.50
2022-08-12T18:30:16.380Z,39.60
2022-08-12T18:32:58.842Z,39.80
2022-08-12T18:35:46.422Z,40.70
2022-08-12T18:38:19.526Z,40.90
2022-08-12T18:41:07.100Z,40.40
2022-08-12T18:43:37.213Z,40.50
2022-08-12T18:46:54.120Z,40.70
2022-08-12T18:49:26.687Z,40.80
2022-08-12T18:52:02.336Z,40.80
2022-08-12T18:54:41.611Z,40.90
2022-08-12T18:57:19.690Z,41.00
2022-08-12T19:00:07.550Z,41.10
2022-08-12T19:02:40.575Z,41.10
2022-08-12T19:05:10.815Z,41.30
2022-08-12T19:07:59.875Z,41.40
2022-08-12T19:10:29.583Z,41.50
2022-08-12T19:13:23.216Z,41.60
2022-08-12T19:15:53.327Z,41.60
2022-08-12T19:18:22.315Z,41.70
2022-08-12T19:20:50.640Z,41.80
2022-08-12T19:23:21.474Z,41.80
2022-08-12T19:25:59.396Z,41.90
2022-08-12T19:28:34.379Z,42.00
2022-08-12T19:31:45.088Z,42.00
2022-08-12T19:35:24.156Z,42.10
2022-08-12T19:37:16.580Z,42.10
2022-08-12T19:40:09.285Z,42.30
2022-08-12T19:42:32.897Z,42.30
2022-08-12T19:45:04.907Z,42.40
2022-08-12T19:47:39.075Z,42.50
2022-08-12T19:50:06.820Z,42.80
2022-08-12T19:52:40.980Z,43.00
2022-08-12T19:55:11.419Z,43.30
2022-08-12T19:58:01.277Z,44.20
2022-08-12T20:00:29.550Z,43.90
2022-08-12T20:03:00.215Z,44.30
2022-08-12T20:06:06.739Z,44.60
2022-08-12T20:08:17.700Z,44.90
2022-08-12T20:12:13.916Z,45.10
2022-08-12T20:13:49.324Z,45.20
2022-08-12T20:16:51.022Z,45.30
2022-08-12T20:19:14.473Z,45.30
2022-08-12T20:21:43.461Z,45.40
2022-08-12T20:24:14.239Z,45.50
2022-08-12T20:26:43.106Z,45.70
2022-08-12T20:29:13.474Z,45.80
2022-08-12T20:31:41.469Z,46.00
2022-08-12T20:34:12.230Z,46.10
2022-08-12T20:36:44.286Z,46.20
2022-08-12T20:39:34.166Z,46.30
2022-08-12T20:42:07.101Z,46.40
2022-08-12T20:44:37.806Z,46.50
2022-08-12T20:47:18.326Z,46.70
2022-08-12T20:49:55.819Z,46.80
2022-08-12T20:52:29.266Z,46.90
2022-08-12T20:54:57.920Z,46.90
2022-08-12T20:57:25.250Z,47.00
2022-08-12T21:00:14.235Z,47.00
2022-08-12T21:02:50.038Z,47.20
2022-08-12T21:06:09.588Z,47.80
2022-08-12T21:08:26.605Z,47.60
2022-08-12T21:10:54.460Z,47.70
2022-08-12T21:13:29.449Z,47.50
2022-08-12T21:16:06.123Z,47.50
2022-08-12T21:18:37.624Z,47.50
2022-08-12T21:21:06.457Z,47.40
2022-08-12T21:23:36.972Z,47.40
2022-08-12T21:26:11.351Z,47.40
2022-08-12T21:28:56.542Z,47.30
2022-08-12T21:32:39.760Z,47.30
2022-08-12T21:34:17.721Z,47.20
2022-08-12T21:36:48.742Z,47.20
2022-08-12T21:39:35.822Z,47.20
2022-08-12T21:42:06.828Z,47.20
2022-08-12T21:45:48.403Z,47.20
2022-08-12T21:47:23.718Z,47.20
2022-08-12T21:50:04.333Z,47.20
2022-08-12T21:52:36.675Z,47.30
2022-08-12T21:55:18.135Z,47.30
2022-08-12T21:57:53.839Z,47.40
2022-08-12T22:00:32.645Z,47.40
2022-08-12T22:04:03.319Z,47.50
2022-08-12T22:06:26.160Z,47.50
2022-08-12T22:09:02.263Z,47.40
2022-08-12T22:11:41.631Z,47.50
2022-08-12T22:14:21.703Z,47.60
2022-08-12T22:16:53.403Z,47.60
2022-08-12T22:19:21.440Z,47.70
2022-08-12T22:21:54.665Z,47.70
2022-08-12T22:24:26.778Z,47.80
2022-08-12T22:27:18.167Z,47.90
2022-08-12T22:30:06.925Z,48.00
2022-08-12T22:32:34.241Z,47.90
2022-08-12T22:35:22.151Z,47.90
2022-08-12T22:37:53.667Z,48.00
2022-08-12T22:40:22.945Z,48.00
2022-08-12T22:43:09.184Z,48.10
2022-08-12T22:46:00.866Z,48.10
2022-08-12T22:48:27.572Z,48.10
2022-08-12T22:50:56.417Z,48.20
2022-08-12T22:53:36.231Z,48.30
2022-08-12T22:56:06.202Z,48.30
2022-08-12T22:58:36.603Z,48.30
2022-08-12T23:01:07.847Z,48.40
2022-08-12T23:03:47.954Z,48.40
2022-08-12T23:06:23.817Z,48.40
2022-08-12T23:08:52.441Z,48.50
2022-08-12T23:11:24.005Z,48.50
2022-08-12T23:14:01.746Z,48.50
2022-08-12T23:16:33.985Z,48.50
2022-08-12T23:19:10.354Z,48.50
2022-08-12T23:22:05.322Z,48.50
2022-08-12T23:24:41.018Z,48.60
2022-08-12T23:27:51.286Z,48.70
2022-08-12T23:30:18.376Z,48.80
2022-08-12T23:32:54.171Z,48.80
2022-08-12T23:35:22.412Z,48.90
2022-08-12T23:37:53.760Z,49.00
2022-08-12T23:40:24.528Z,49.20
2022-08-12T23:42:54.018Z,49.30
2022-08-12T23:45:31.378Z,49.40
2022-08-12T23:48:00.438Z,49.40
2022-08-12T23:50:33.918Z,49.50
2022-08-12T23:53:06.629Z,49.60
2022-08-12T23:55:45.471Z,49.70
2022-08-12T23:58:23.141Z,49.80
